Time;durP1;ratioP1;P1;durP2;ratioP2;P2;SDS_P1;SDS_P2;PMS_P1;PMS_P2;Temp;Humidity;BMP_temperature;BMP_pressure;BME280_temperature;BME280_humidity;BME280_pressure;Samples;Min_cycle;Max_cycle;Signal;HPM_P1;HPM_P2
2023/06/30 00:01:48;;;;;;;0.85;0.60;;;19.00;99.90;;;;;;4973211;28;20576;-73
2023/06/30 00:04:16;;;;;;;0.50;0.50;;;19.00;99.90;;;;;;4987462;28;20635;-74
2023/06/30 00:06:42;;;;;;;0.30;0.30;;;19.10;99.90;;;;;;5012814;28;20654;-73
2023/06/30 00:09:08;;;;;;;0.30;0.30;;;19.10;99.90;;;;;;5012314;28;20205;-73
2023/06/30 00:11:36;;;;;;;1.13;0.85;;;19.10;99.90;;;;;;5001053;28;20616;-73
2023/06/30 00:14:01;;;;;;;0.57;0.38;;;19.00;99.90;;;;;;4992514;28;20282;-73
2023/06/30 00:16:27;;;;;;;4.07;0.85;;;18.90;99.90;;;;;;4992340;28;20274;-73
2023/06/30 00:18:55;;;;;;;0.38;0.38;;;18.90;99.90;;;;;;4992473;28;20230;-73
2023/06/30 00:21:21;;;;;;;0.40;0.40;;;18.90;99.90;;;;;;4992267;28;20609;-73
2023/06/30 00:23:47;;;;;;;6.90;0.80;;;19.00;99.90;;;;;;4991210;28;20199;-73
2023/06/30 00:26:12;;;;;;;0.35;0.35;;;19.10;99.90;;;;;;4992289;28;20199;-73
2023/06/30 00:28:38;;;;;;;0.40;0.40;;;19.10;99.90;;;;;;4992650;28;20213;-73
2023/06/30 00:31:04;;;;;;;0.32;0.32;;;19.10;99.90;;;;;;4992479;28;20199;-73
2023/06/30 00:33:29;;;;;;;0.90;0.85;;;19.10;99.90;;;;;;4991996;28;20192;-73
2023/06/30 00:35:55;;;;;;;2.10;0.73;;;19.10;99.90;;;;;;4992290;28;20702;-74
2023/06/30 00:38:21;;;;;;;0.75;0.50;;;19.10;99.90;;;;;;4991673;28;20200;-74
2023/06/30 00:40:46;;;;;;;0.85;0.82;;;19.20;99.90;;;;;;4991943;28;20249;-74
2023/06/30 00:43:13;;;;;;;0.20;0.20;;;19.20;99.90;;;;;;4991990;28;20203;-73
2023/06/30 00:45:39;;;;;;;0.45;0.45;;;19.10;99.90;;;;;;4992466;28;20668;-73
2023/06/30 00:48:06;;;;;;;0.50;0.50;;;19.10;99.90;;;;;;4992101;28;20216;-73
2023/06/30 00:50:32;;;;;;;0.32;0.32;;;19.10;99.90;;;;;;4991679;28;20653;-73
2023/06/30 00:52:59;;;;;;;0.40;0.40;;;19.10;99.90;;;;;;4992012;28;20211;-74
2023/06/30 00:55:26;;;;;;;0.43;0.43;;;19.10;99.90;;;;;;4991253;28;20196;-74
2023/06/30 00:57:52;;;;;;;0.20;0.20;;;19.10;99.90;;;;;;4991809;28;20191;-73
2023/06/30 01:00:18;;;;;;;0.50;0.50;;;19.10;99.90;;;;;;4991559;28;20723;-71
2023/06/30 01:02:54;;;;;;;0.63;0.63;;;19.10;99.90;;;;;;5017417;23;20304;-64
2023/06/30 01:05:26;;;;;;;0.50;0.50;;;19.10;99.90;;;;;;5050621;28;20749;-65
2023/06/30 01:07:51;;;;;;;0.45;0.43;;;19.10;99.90;;;;;;5039724;28;20222;-65
2023/06/30 01:10:22;;;;;;;0.40;0.40;;;19.10;99.90;;;;;;5030564;28;20229;-65
2023/06/30 01:12:49;;;;;;;0.25;0.25;;;19.10;99.90;;;;;;5031096;28;20218;-65
2023/06/30 01:15:15;;;;;;;0.82;0.82;;;19.00;99.90;;;;;;5030944;28;20190;-64
2023/06/30 01:17:46;;;;;;;1.23;0.95;;;19.00;99.90;;;;;;5030591;28;20190;-64
2023/06/30 01:20:14;;;;;;;0.88;0.45;;;18.90;99.90;;;;;;5030640;28;20198;-64
2023/06/30 01:22:46;;;;;;;0.40;0.40;;;18.80;99.90;;;;;;5030761;28;20202;-64
2023/06/30 01:25:21;;;;;;;0.20;0.20;;;18.80;99.90;;;;;;5029261;28;20201;-65
2023/06/30 01:27:49;;;;;;;0.50;0.50;;;18.70;99.90;;;;;;5030837;28;20224;-64
2023/06/30 01:30:15;;;;;;;0.60;0.57;;;18.70;99.90;;;;;;5030469;28;20198;-64
2023/06/30 01:32:43;;;;;;;0.60;0.60;;;18.80;99.90;;;;;;5030992;28;20301;-64
2023/06/30 01:35:08;;;;;;;0.60;0.60;;;18.90;99.90;;;;;;5030439;28;20233;-64
2023/06/30 01:37:34;;;;;;;0.20;0.20;;;18.80;99.90;;;;;;5030432;28;20230;-64
2023/06/30 01:40:00;;;;;;;0.30;0.30;;;18.80;99.90;;;;;;5030559;28;20236;-64
2023/06/30 01:42:27;;;;;;;0.65;0.65;;;18.90;99.90;;;;;;5030054;28;20206;-64
2023/06/30 01:44:54;;;;;;;1.10;0.55;;;18.90;99.90;;;;;;5012567;28;20198;-64
2023/06/30 01:47:20;;;;;;;0.57;0.57;;;18.90;99.90;;;;;;5030244;28;20688;-64
2023/06/30 01:49:46;;;;;;;2.28;0.50;;;18.90;99.90;;;;;;5030208;28;20240;-64
2023/06/30 01:52:12;;;;;;;0.35;0.35;;;18.80;99.90;;;;;;5030345;28;20614;-64
2023/06/30 01:54:38;;;;;;;0.82;0.60;;;18.80;99.90;;;;;;5029999;28;20209;-65
2023/06/30 01:57:04;;;;;;;0.77;0.77;;;18.70;99.90;;;;;;5030214;28;20238;-65
2023/06/30 01:59:29;;;;;;;0.40;0.40;;;18.70;99.90;;;;;;5029984;28;20234;-64
2023/06/30 02:01:55;;;;;;;0.25;0.25;;;18.70;99.90;;;;;;5029118;28;20209;-64
2023/06/30 02:04:21;;;;;;;0.65;0.65;;;18.80;99.90;;;;;;5012032;28;20244;-65
2023/06/30 02:06:47;;;;;;;0.43;0.40;;;18.90;99.90;;;;;;5031921;28;20229;-64
2023/06/30 02:09:13;;;;;;;0.52;0.50;;;18.80;99.90;;;;;;5033976;28;20210;-64
2023/06/30 02:11:39;;;;;;;0.50;0.47;;;18.60;99.90;;;;;;5034146;28;20538;-64
2023/06/30 02:14:05;;;;;;;0.45;0.45;;;18.60;99.90;;;;;;5034205;28;20297;-64
2023/06/30 02:16:31;;;;;;;0.30;0.30;;;18.60;99.90;;;;;;5033782;28;20272;-63
2023/06/30 02:18:57;;;;;;;0.38;0.38;;;18.70;99.90;;;;;;5034054;28;20260;-63
2023/06/30 02:21:25;;;;;;;0.30;0.30;;;18.80;99.90;;;;;;5033745;28;20670;-63
2023/06/30 02:23:51;;;;;;;5.28;0.73;;;18.70;99.90;;;;;;5033921;28;20198;-63
2023/06/30 02:26:17;;;;;;;0.25;0.25;;;18.80;99.90;;;;;;5033726;28;20194;-63
2023/06/30 02:28:43;;;;;;;0.70;0.70;;;18.90;99.90;;;;;;5034205;28;20229;-63
2023/06/30 02:31:09;;;;;;;0.38;0.38;;;19.00;99.90;;;;;;5034104;28;20201;-62
2023/06/30 02:33:35;;;;;;;0.50;0.50;;;19.10;99.90;;;;;;5033495;28;20245;-62
2023/06/30 02:36:03;;;;;;;0.38;0.38;;;19.10;99.90;;;;;;5015940;28;20197;-63
2023/06/30 02:38:29;;;;;;;0.63;0.63;;;19.10;99.90;;;;;;5034169;28;20202;-63
2023/06/30 02:40:55;;;;;;;2.45;1.23;;;19.20;99.90;;;;;;5053456;28;20201;-62
2023/06/30 02:43:20;;;;;;;0.95;0.73;;;19.20;99.90;;;;;;5053557;28;20201;-62
2023/06/30 02:45:46;;;;;;;1.08;0.90;;;19.20;99.90;;;;;;5035883;28;20679;-64
2023/06/30 02:48:12;;;;;;;0.30;0.30;;;19.30;99.90;;;;;;5053190;28;20209;-63
2023/06/30 02:50:38;;;;;;;0.30;0.30;;;19.40;99.90;;;;;;5053314;28;20202;-63
2023/06/30 02:53:04;;;;;;;0.45;0.45;;;19.40;99.90;;;;;;5043861;28;20194;-63
2023/06/30 02:55:32;;;;;;;0.80;0.77;;;19.50;99.90;;;;;;5033041;28;20248;-63
2023/06/30 02:57:58;;;;;;;0.82;0.40;;;19.50;99.90;;;;;;5033490;28;20193;-63
2023/06/30 03:00:23;;;;;;;0.30;0.30;;;19.60;99.90;;;;;;5032866;28;20198;-63
2023/06/30 03:02:49;;;;;;;0.35;0.35;;;19.70;99.90;;;;;;5021806;28;20267;-63
2023/06/30 03:05:15;;;;;;;0.88;0.50;;;19.70;99.90;;;;;;5033158;28;20265;-63
2023/06/30 03:07:41;;;;;;;0.50;0.50;;;19.80;99.90;;;;;;5033267;28;20634;-64
2023/06/30 03:10:07;;;;;;;1.05;0.70;;;19.80;99.90;;;;;;5033407;28;20206;-63
2023/06/30 03:12:33;;;;;;;0.50;0.45;;;19.80;99.90;;;;;;5033043;28;20201;-63
2023/06/30 03:14:59;;;;;;;0.35;0.35;;;19.80;99.90;;;;;;5033225;28;20281;-64
2023/06/30 03:17:24;;;;;;;0.98;0.57;;;19.80;99.90;;;;;;5032487;28;20194;-63
2023/06/30 03:19:50;;;;;;;0.43;0.43;;;19.70;99.90;;;;;;5033025;28;20202;-63
2023/06/30 03:22:16;;;;;;;0.55;0.55;;;19.60;99.90;;;;;;5032968;28;20243;-64
2023/06/30 03:24:42;;;;;;;0.38;0.38;;;19.60;99.90;;;;;;5032917;28;20699;-63
2023/06/30 03:27:07;;;;;;;0.65;0.38;;;19.60;99.90;;;;;;5032846;28;20198;-62
2023/06/30 03:29:33;;;;;;;0.63;0.63;;;19.50;99.90;;;;;;5032629;28;20198;-64
2023/06/30 03:31:59;;;;;;;0.38;0.38;;;19.60;99.90;;;;;;5032922;28;20193;-63
2023/06/30 03:34:25;;;;;;;0.30;0.30;;;19.60;99.90;;;;;;5032445;28;20190;-63
2023/06/30 03:36:50;;;;;;;0.20;0.20;;;19.70;99.90;;;;;;5037220;28;20186;-63
2023/06/30 03:39:16;;;;;;;0.60;0.60;;;19.70;99.90;;;;;;5052756;28;20228;-63
2023/06/30 03:41:42;;;;;;;0.57;0.57;;;19.80;99.90;;;;;;5052343;28;20541;-64
2023/06/30 03:44:08;;;;;;;1.65;1.13;;;19.70;99.90;;;;;;5052357;28;20268;-63
2023/06/30 03:46:34;;;;;;;1.30;0.63;;;19.70;99.90;;;;;;5052248;28;20221;-63
2023/06/30 03:49:00;;;;;;;0.38;0.38;;;19.70;99.90;;;;;;5045699;28;20770;-64
2023/06/30 03:51:25;;;;;;;0.63;0.63;;;19.70;99.90;;;;;;5032163;28;20213;-64
2023/06/30 03:53:51;;;;;;;0.85;0.85;;;19.70;99.90;;;;;;5032718;28;20275;-63
2023/06/30 03:56:17;;;;;;;0.40;0.40;;;19.60;99.90;;;;;;5032175;28;20190;-63
2023/06/30 03:58:43;;;;;;;0.45;0.45;;;19.70;99.90;;;;;;5030617;28;20275;-63
2023/06/30 04:01:09;;;;;;;0.40;0.40;;;19.80;99.90;;;;;;5032412;28;20294;-63
2023/06/30 04:03:35;;;;;;;0.40;0.40;;;19.70;99.90;;;;;;5031540;28;20325;-63
2023/06/30 04:06:00;;;;;;;1.80;0.88;;;19.70;99.90;;;;;;5031968;28;20663;-63
2023/06/30 04:08:26;;;;;;;0.90;0.55;;;19.70;99.90;;;;;;5031589;28;20264;-63
2023/06/30 04:10:52;;;;;;;0.50;0.50;;;19.80;99.90;;;;;;5032056;28;20201;-63
2023/06/30 04:13:18;;;;;;;0.52;0.52;;;19.80;99.90;;;;;;5031255;28;20668;-64
2023/06/30 04:15:44;;;;;;;1.00;0.82;;;19.80;99.90;;;;;;5032092;28;20189;-63
2023/06/30 04:18:09;;;;;;;0.80;0.75;;;19.80;99.90;;;;;;5031691;28;20282;-63
2023/06/30 04:20:35;;;;;;;1.48;0.40;;;19.80;99.90;;;;;;5032154;28;20233;-63
2023/06/30 04:23:01;;;;;;;0.60;0.60;;;19.80;99.90;;;;;;5032309;28;20218;-63
2023/06/30 04:25:26;;;;;;;0.63;0.60;;;19.70;99.90;;;;;;5032073;28;20217;-64
2023/06/30 04:27:52;;;;;;;0.30;0.30;;;19.70;99.90;;;;;;5031990;28;20356;-64
2023/06/30 04:30:18;;;;;;;0.47;0.47;;;19.50;99.90;;;;;;5030523;28;20255;-64
2023/06/30 04:32:44;;;;;;;2.05;1.00;;;19.30;99.90;;;;;;5031967;28;20709;-64
2023/06/30 04:35:10;;;;;;;0.70;0.60;;;19.20;99.90;;;;;;5031708;28;20197;-64
2023/06/30 04:37:40;;;;;;;0.55;0.55;;;19.20;99.90;;;;;;5024044;28;20217;-64
2023/06/30 04:40:10;;;;;;;4.32;0.90;;;19.20;99.90;;;;;;5016242;28;20205;-63
2023/06/30 04:42:37;;;;;;;0.50;0.50;;;19.10;99.90;;;;;;5030583;28;20559;-64
2023/06/30 04:45:04;;;;;;;0.57;0.50;;;19.20;99.90;;;;;;5031071;28;20210;-64
2023/06/30 04:47:30;;;;;;;0.70;0.70;;;19.30;99.90;;;;;;5031289;28;20194;-64
2023/06/30 04:49:55;;;;;;;0.38;0.38;;;19.40;99.90;;;;;;5031685;28;20605;-64
2023/06/30 04:52:21;;;;;;;0.40;0.40;;;19.40;99.90;;;;;;5030868;28;20221;-64
2023/06/30 04:54:48;;;;;;;0.40;0.40;;;19.60;99.90;;;;;;5013626;28;20661;-64
2023/06/30 04:57:14;;;;;;;1.95;0.65;;;19.60;99.90;;;;;;5031173;28;20186;-64
2023/06/30 04:59:39;;;;;;;1.40;0.90;;;19.70;99.90;;;;;;5030984;28;20603;-64
2023/06/30 05:02:06;;;;;;;0.40;0.40;;;19.60;99.90;;;;;;5030864;28;20214;-64
2023/06/30 05:04:32;;;;;;;0.22;0.22;;;19.50;99.90;;;;;;5013299;28;20214;-64
2023/06/30 05:06:57;;;;;;;0.32;0.32;;;19.40;99.90;;;;;;5030944;28;20208;-63
2023/06/30 05:09:23;;;;;;;0.30;0.30;;;19.40;99.90;;;;;;5030718;28;20742;-64
2023/06/30 05:11:50;;;;;;;0.88;0.80;;;19.40;99.90;;;;;;5031081;28;20198;-64
2023/06/30 05:14:16;;;;;;;1.02;0.60;;;19.40;99.90;;;;;;5029512;28;20194;-64
2023/06/30 05:16:42;;;;;;;0.63;0.63;;;19.40;99.90;;;;;;5030772;28;20194;-63
2023/06/30 05:19:08;;;;;;;0.95;0.68;;;19.50;99.90;;;;;;5030891;28;20194;-64
2023/06/30 05:21:34;;;;;;;0.55;0.47;;;19.40;99.90;;;;;;5030393;28;20201;-64
2023/06/30 05:23:59;;;;;;;0.70;0.70;;;19.40;99.90;;;;;;5030697;28;20201;-64
2023/06/30 05:26:25;;;;;;;0.40;0.40;;;19.50;99.90;;;;;;5030853;28;20557;-63
2023/06/30 05:28:51;;;;;;;0.63;0.60;;;19.40;99.90;;;;;;5030613;28;20210;-64
2023/06/30 05:31:16;;;;;;;0.77;0.77;;;19.30;99.90;;;;;;5030549;28;20186;-63
2023/06/30 05:33:42;;;;;;;0.70;0.60;;;19.30;99.90;;;;;;5012857;28;20205;-64
2023/06/30 05:36:08;;;;;;;0.85;0.68;;;19.20;99.90;;;;;;5029634;28;20237;-63
2023/06/30 05:38:34;;;;;;;0.85;0.65;;;19.00;99.90;;;;;;5048898;28;20231;-64
2023/06/30 05:41:00;;;;;;;0.30;0.30;;;18.90;99.90;;;;;;5047604;28;20197;-63
2023/06/30 05:43:26;;;;;;;0.30;0.30;;;18.80;99.90;;;;;;5030410;28;20198;-64
2023/06/30 05:45:51;;;;;;;0.75;0.75;;;18.80;99.90;;;;;;5030458;28;20202;-64
2023/06/30 05:48:17;;;;;;;0.40;0.40;;;18.60;99.90;;;;;;5030229;28;20707;-65
2023/06/30 05:50:45;;;;;;;1.08;0.75;;;18.60;99.90;;;;;;5030358;28;20197;-63
2023/06/30 05:53:11;;;;;;;1.10;0.70;;;18.60;99.90;;;;;;5030331;28;20557;-63
2023/06/30 05:55:36;;;;;;;0.50;0.50;;;18.60;99.90;;;;;;5028769;28;20197;-64
2023/06/30 05:58:02;;;;;;;0.57;0.57;;;18.60;99.90;;;;;;5030377;28;20221;-63
2023/06/30 06:00:28;;;;;;;0.50;0.50;;;18.70;99.90;;;;;;5029944;28;20236;-64
2023/06/30 06:02:54;;;;;;;1.48;0.90;;;18.70;99.90;;;;;;5029837;28;20222;-64
2023/06/30 06:05:20;;;;;;;0.45;0.45;;;18.70;99.90;;;;;;5030045;28;20287;-64
2023/06/30 06:07:47;;;;;;;0.30;0.30;;;18.60;99.90;;;;;;5030392;28;20692;-63
2023/06/30 06:10:13;;;;;;;0.57;0.57;;;18.70;99.90;;;;;;5030015;28;20197;-63
2023/06/30 06:12:39;;;;;;;1.17;0.55;;;18.70;99.90;;;;;;5029510;28;20348;-63
2023/06/30 06:15:06;;;;;;;0.50;0.50;;;18.80;99.90;;;;;;5030229;28;20181;-63
2023/06/30 06:17:32;;;;;;;0.52;0.50;;;18.90;99.90;;;;;;5029911;28;20243;-64
2023/06/30 06:19:58;;;;;;;1.38;0.85;;;18.90;99.90;;;;;;5012506;28;20676;-63
2023/06/30 06:22:24;;;;;;;0.55;0.55;;;18.90;99.90;;;;;;5030003;28;20665;-64
2023/06/30 06:24:49;;;;;;;0.70;0.70;;;19.00;99.90;;;;;;5030080;28;20226;-64
2023/06/30 06:27:15;;;;;;;1.00;0.70;;;18.90;99.90;;;;;;5030087;28;20221;-64
2023/06/30 06:29:41;;;;;;;0.35;0.35;;;19.00;99.90;;;;;;5012093;28;20210;-63
2023/06/30 06:32:07;;;;;;;0.40;0.40;;;19.10;99.90;;;;;;5029949;28;20195;-64
2023/06/30 06:34:34;;;;;;;1.92;0.93;;;19.20;99.90;;;;;;5012097;28;20244;-63
2023/06/30 06:37:01;;;;;;;2.53;1.13;;;19.40;99.90;;;;;;5034939;28;20198;-63
2023/06/30 06:39:26;;;;;;;1.27;1.17;;;19.50;99.90;;;;;;5029591;28;20206;-63
2023/06/30 06:41:52;;;;;;;2.13;1.05;;;19.60;99.90;;;;;;5030250;28;20194;-63
2023/06/30 06:44:18;;;;;;;1.40;0.82;;;19.60;99.90;;;;;;5029173;28;20711;-63
2023/06/30 06:46:44;;;;;;;0.65;0.65;;;19.60;99.90;;;;;;5029497;28;20225;-64
2023/06/30 06:49:10;;;;;;;1.05;0.90;;;19.60;99.90;;;;;;5029683;28;20214;-64
2023/06/30 06:51:36;;;;;;;0.32;0.32;;;19.60;99.90;;;;;;5029549;28;20248;-63
2023/06/30 06:54:01;;;;;;;0.60;0.52;;;19.50;99.90;;;;;;5033310;28;20217;-63
2023/06/30 06:56:27;;;;;;;0.50;0.50;;;19.50;99.90;;;;;;5033119;28;20190;-64
2023/06/30 06:58:53;;;;;;;1.55;1.08;;;19.40;99.90;;;;;;5033500;28;20677;-63
2023/06/30 07:01:18;;;;;;;0.90;0.90;;;19.40;99.90;;;;;;5033095;28;20198;-63
2023/06/30 07:03:44;;;;;;;0.82;0.80;;;19.40;99.90;;;;;;5032861;28;20226;-64
2023/06/30 07:06:10;;;;;;;1.33;1.05;;;19.40;99.90;;;;;;5033244;28;20248;-63
2023/06/30 07:08:36;;;;;;;1.77;1.15;;;19.50;99.90;;;;;;5032984;28;20292;-63
2023/06/30 07:11:06;;;;;;;0.65;0.65;;;19.50;99.90;;;;;;5032980;28;20190;-63
2023/06/30 07:13:32;;;;;;;1.23;1.13;;;19.60;99.90;;;;;;5032732;28;20226;-64
2023/06/30 07:15:58;;;;;;;1.05;0.95;;;19.60;99.90;;;;;;5032918;28;20288;-63
2023/06/30 07:18:25;;;;;;;0.38;0.38;;;19.50;99.90;;;;;;5032630;28;20273;-64
2023/06/30 07:20:53;;;;;;;1.00;1.00;;;19.60;99.90;;;;;;5032879;28;20208;-63
2023/06/30 07:23:19;;;;;;;0.63;0.60;;;19.60;99.90;;;;;;5014842;28;20225;-65
2023/06/30 07:25:46;;;;;;;0.40;0.40;;;19.40;99.90;;;;;;5032843;28;20763;-63
2023/06/30 07:28:12;;;;;;;1.40;0.95;;;19.50;99.90;;;;;;5023129;28;20214;-63
2023/06/30 07:30:39;;;;;;;0.40;0.40;;;19.50;99.90;;;;;;5012827;28;20199;-64
2023/06/30 07:33:05;;;;;;;0.40;0.40;;;19.50;99.90;;;;;;5013049;28;20183;-63
2023/06/30 07:35:31;;;;;;;0.77;0.45;;;19.60;99.90;;;;;;5031598;28;20346;-63
2023/06/30 07:37:56;;;;;;;0.47;0.47;;;19.50;99.90;;;;;;5046292;28;20193;-63
2023/06/30 07:40:22;;;;;;;0.55;0.55;;;19.40;99.90;;;;;;5051265;28;20251;-63
2023/06/30 07:42:48;;;;;;;0.63;0.50;;;19.40;99.90;;;;;;5032561;28;20688;-63
2023/06/30 07:45:15;;;;;;;0.40;0.40;;;19.50;99.90;;;;;;5032684;28;20281;-63
2023/06/30 07:47:42;;;;;;;0.43;0.43;;;19.50;99.90;;;;;;5031542;28;20206;-63
2023/06/30 07:50:12;;;;;;;3.30;1.33;;;19.50;99.90;;;;;;5032268;28;20620;-63
2023/06/30 07:52:45;;;;;;;0.30;0.30;;;19.50;99.90;;;;;;5032284;28;20559;-63
2023/06/30 07:55:12;;;;;;;1.15;0.45;;;19.50;99.90;;;;;;5032263;28;20194;-64
2023/06/30 07:57:38;;;;;;;18.15;0.98;;;19.50;99.90;;;;;;5014573;28;20198;-64
2023/06/30 08:00:06;;;;;;;0.38;0.38;;;19.70;99.90;;;;;;5031141;28;20259;-64
2023/06/30 08:02:32;;;;;;;0.22;0.22;;;19.60;99.90;;;;;;5031664;28;20246;-64
2023/06/30 08:04:57;;;;;;;1.88;0.73;;;19.70;99.90;;;;;;5031209;28;20204;-63
2023/06/30 08:07:23;;;;;;;0.20;0.20;;;19.60;99.90;;;;;;5031887;28;20216;-64
2023/06/30 08:09:49;;;;;;;0.28;0.28;;;19.70;99.90;;;;;;5014299;28;20206;-63
2023/06/30 08:12:15;;;;;;;0.13;0.13;;;19.90;99.90;;;;;;5031957;28;20198;-63
2023/06/30 08:14:41;;;;;;;0.22;0.22;;;20.10;99.90;;;;;;5032228;28;20214;-63
2023/06/30 08:17:06;;;;;;;0.40;0.40;;;20.20;99.90;;;;;;5031968;28;20653;-63
2023/06/30 08:19:32;;;;;;;0.60;0.60;;;20.20;99.90;;;;;;5031530;28;20194;-64
2023/06/30 08:21:58;;;;;;;0.63;0.38;;;20.20;99.90;;;;;;5031916;28;20252;-64
2023/06/30 08:24:23;;;;;;;0.80;0.80;;;19.90;99.90;;;;;;5031466;28;20195;-63
2023/06/30 08:26:51;;;;;;;0.32;0.32;;;20.20;99.90;;;;;;5031724;28;20194;-63
2023/06/30 08:29:17;;;;;;;0.50;0.50;;;20.60;99.90;;;;;;5029200;28;20553;-64
2023/06/30 08:31:43;;;;;;;0.40;0.40;;;20.60;99.90;;;;;;5030568;28;20198;-63
2023/06/30 08:34:10;;;;;;;0.20;0.20;;;20.60;99.90;;;;;;5013838;28;20187;-62
2023/06/30 08:36:36;;;;;;;1.75;0.70;;;20.40;99.90;;;;;;5033009;28;20205;-63
2023/06/30 08:39:01;;;;;;;0.30;0.30;;;20.30;99.90;;;;;;5031706;28;20190;-63
2023/06/30 08:41:28;;;;;;;0.20;0.20;;;20.20;99.90;;;;;;5031380;28;20715;-63
2023/06/30 08:43:56;;;;;;;0.20;0.20;;;20.00;99.90;;;;;;5031725;28;20230;-63
2023/06/30 08:46:24;;;;;;;0.20;0.20;;;20.00;99.90;;;;;;5031230;28;20248;-63
2023/06/30 08:48:51;;;;;;;0.65;0.65;;;20.00;99.90;;;;;;5031334;28;20267;-63
2023/06/30 08:51:18;;;;;;;0.30;0.30;;;20.00;99.90;;;;;;5031343;28;20190;-63
2023/06/30 08:53:47;;;;;;;0.20;0.20;;;19.90;99.90;;;;;;5031633;28;20194;-62
2023/06/30 08:56:14;;;;;;;0.38;0.30;;;19.80;99.90;;;;;;5031114;28;20196;-62
2023/06/30 08:58:40;;;;;;;0.20;0.20;;;20.10;99.90;;;;;;5031621;28;20569;-62
2023/06/30 09:01:07;;;;;;;0.20;0.20;;;20.10;99.90;;;;;;5031186;28;20214;-63
2023/06/30 09:03:34;;;;;;;0.22;0.22;;;20.20;99.90;;;;;;5030497;28;20240;-62
2023/06/30 09:06:00;;;;;;;0.22;0.22;;;19.90;99.90;;;;;;5031183;28;20198;-63
2023/06/30 09:08:33;;;;;;;0.25;0.25;;;19.90;99.90;;;;;;5030536;28;20210;-62
2023/06/30 09:11:04;;;;;;;1.08;0.40;;;19.90;99.90;;;;;;5030969;28;20218;-62
2023/06/30 09:13:30;;;;;;;0.30;0.30;;;19.90;99.90;;;;;;5031090;28;20556;-62
2023/06/30 09:15:59;;;;;;;0.20;0.20;;;19.80;99.90;;;;;;5030666;28;20193;-62
2023/06/30 09:18:25;;;;;;;0.47;0.47;;;20.00;99.90;;;;;;5030568;28;20198;-62
2023/06/30 09:20:52;;;;;;;0.45;0.45;;;20.00;99.90;;;;;;5030896;28;20197;-62
2023/06/30 09:23:18;;;;;;;0.20;0.20;;;20.20;99.90;;;;;;5030624;28;20197;-63
2023/06/30 09:25:44;;;;;;;0.20;0.20;;;20.30;99.90;;;;;;5030464;28;20182;-62
2023/06/30 09:28:12;;;;;;;0.30;0.30;;;20.40;99.90;;;;;;5030737;28;20504;-63
2023/06/30 09:30:45;;;;;;;0.32;0.30;;;20.10;99.90;;;;;;5030473;28;20214;-63
2023/06/30 09:33:17;;;;;;;0.40;0.40;;;20.10;99.90;;;;;;5030460;28;20230;-63
2023/06/30 09:35:46;;;;;;;0.30;0.30;;;20.10;99.90;;;;;;5030783;28;20715;-63
2023/06/30 09:38:13;;;;;;;0.10;0.10;;;20.40;99.90;;;;;;5046236;28;20194;-63
2023/06/30 09:40:47;;;;;;;0.22;0.22;;;20.80;99.90;;;;;;5046117;28;20213;-64
2023/06/30 09:43:17;;;;;;;0.30;0.30;;;21.00;99.90;;;;;;5030606;28;20225;-63
2023/06/30 09:45:47;;;;;;;1.27;1.08;;;21.20;99.90;;;;;;5030417;28;20197;-63
2023/06/30 09:48:13;;;;;;;0.20;0.20;;;21.30;99.90;;;;;;5030722;28;20233;-63
2023/06/30 09:50:41;;;;;;;0.63;0.63;;;21.00;99.90;;;;;;5029252;28;20206;-63
2023/06/30 09:53:10;;;;;;;0.28;0.28;;;21.20;99.90;;;;;;5030292;28;20198;-63
2023/06/30 09:55:49;;;;;;;0.20;0.20;;;21.20;99.90;;;;;;5030209;28;20198;-63
2023/06/30 09:58:17;;;;;;;0.57;0.57;;;21.10;99.90;;;;;;5030153;28;20197;-63
2023/06/30 10:00:43;;;;;;;0.30;0.30;;;21.10;99.90;;;;;;5030450;28;20337;-63
2023/06/30 10:03:09;;;;;;;0.85;0.40;;;20.80;99.90;;;;;;5029868;28;20233;-63
2023/06/30 10:05:38;;;;;;;1.02;0.35;;;20.90;99.90;;;;;;5030051;28;20182;-63
2023/06/30 10:08:05;;;;;;;0.25;0.25;;;20.50;99.90;;;;;;5030326;28;20331;-63
2023/06/30 10:10:31;;;;;;;0.10;0.10;;;20.30;99.90;;;;;;5029918;28;20234;-63
2023/06/30 10:12:58;;;;;;;1.02;0.57;;;20.10;99.90;;;;;;5030210;28;20738;-63
2023/06/30 10:15:25;;;;;;;0.75;0.70;;;19.90;99.90;;;;;;5029953;28;20183;-63
2023/06/30 10:17:52;;;;;;;0.30;0.30;;;19.90;99.90;;;;;;5030269;28;20280;-63
2023/06/30 10:20:18;;;;;;;0.10;0.10;;;20.00;99.90;;;;;;5030182;28;20190;-63
2023/06/30 10:22:45;;;;;;;0.20;0.20;;;20.50;99.90;;;;;;5029932;28;20237;-64
2023/06/30 10:25:14;;;;;;;0.40;0.30;;;20.90;99.90;;;;;;5030102;28;20217;-63
2023/06/30 10:27:41;;;;;;;0.40;0.30;;;21.20;99.90;;;;;;5031409;28;20209;-64
2023/06/30 10:30:07;;;;;;;0.32;0.20;;;21.40;99.90;;;;;;5033985;28;20592;-63
2023/06/30 10:32:33;;;;;;;1.60;0.60;;;21.70;99.90;;;;;;5033959;28;20716;-63
2023/06/30 10:35:00;;;;;;;0.20;0.20;;;21.90;99.90;;;;;;5034022;28;20194;-64
2023/06/30 10:37:26;;;;;;;0.20;0.20;;;21.90;99.90;;;;;;5034646;28;20206;-63
2023/06/30 10:39:52;;;;;;;6.93;0.63;;;22.20;99.90;;;;;;5033874;28;20230;-63
2023/06/30 10:42:20;;;;;;;0.55;0.30;;;22.40;99.90;;;;;;5033600;28;20226;-63
2023/06/30 10:44:47;;;;;;;0.10;0.10;;;22.50;99.90;;;;;;5033929;28;20734;-64
2023/06/30 10:47:14;;;;;;;0.10;0.10;;;23.00;99.90;;;;;;5033746;28;20625;-63
2023/06/30 10:49:41;;;;;;;0.20;0.20;;;22.50;99.90;;;;;;5033489;28;20198;-63
2023/06/30 10:52:27;;;;;;;0.30;0.30;;;22.30;99.90;;;;;;5033458;28;20190;-63
2023/06/30 10:54:53;;;;;;;0.70;0.50;;;22.40;99.90;;;;;;5032362;28;20221;-63
2023/06/30 10:57:25;;;;;;;0.30;0.20;;;22.30;99.90;;;;;;5033137;28;20629;-64
2023/06/30 11:00:14;;;;;;;1.00;0.65;;;22.80;99.90;;;;;;5033498;28;20600;-63
2023/06/30 11:03:09;;;;;;;0.10;0.10;;;23.60;99.90;;;;;;5032926;28;20246;-63
2023/06/30 11:05:35;;;;;;;0.32;0.20;;;23.80;99.90;;;;;;5007901;28;20296;-63
2023/06/30 11:08:21;;;;;;;3.63;0.25;;;24.00;99.90;;;;;;5033324;28;20407;-63
2023/06/30 11:10:47;;;;;;;0.10;0.10;;;24.00;99.90;;;;;;5033205;28;20595;-64
2023/06/30 11:13:14;;;;;;;0.65;0.40;;;24.10;99.90;;;;;;5033415;28;20233;-63
2023/06/30 11:15:47;;;;;;;3.72;0.40;;;23.30;99.90;;;;;;5015310;28;20342;-63
2023/06/30 11:18:14;;;;;;;0.00;0.00;;;22.20;99.90;;;;;;5032666;28;20212;-63
2023/06/30 11:21:00;;;;;;;0.30;0.30;;;22.30;99.90;;;;;;5033165;28;20669;-64
2023/06/30 11:23:28;;;;;;;0.22;0.22;;;22.50;99.90;;;;;;5032721;28;20197;-63
2023/06/30 11:25:58;;;;;;;5.28;0.88;;;22.40;99.90;;;;;;5033061;28;20190;-63
2023/06/30 11:28:26;;;;;;;0.10;0.10;;;22.20;99.90;;;;;;5032589;28;20261;-64
2023/06/30 11:30:51;;;;;;;0.00;0.00;;;22.50;99.90;;;;;;5032765;28;20574;-63
2023/06/30 11:33:18;;;;;;;3.28;0.20;;;22.70;99.90;;;;;;5032764;28;20198;-64
2023/06/30 11:35:48;;;;;;;0.20;0.20;;;22.90;99.90;;;;;;5032795;28;20194;-64
2023/06/30 11:38:15;;;;;;;0.00;0.00;;;22.90;99.90;;;;;;5048202;28;20193;-64
2023/06/30 11:40:48;;;;;;;0.28;0.22;;;23.00;99.90;;;;;;5052751;28;20190;-63
2023/06/30 11:43:14;;;;;;;1.65;0.30;;;23.00;99.90;;;;;;5052475;28;20221;-63
2023/06/30 11:45:40;;;;;;;2.83;0.35;;;23.00;99.90;;;;;;5052161;28;20190;-64
2023/06/30 11:48:06;;;;;;;0.00;0.00;;;23.50;99.90;;;;;;5052542;28;20217;-63
2023/06/30 11:50:33;;;;;;;0.30;0.30;;;23.40;99.90;;;;;;5052061;28;20606;-63
2023/06/30 11:53:01;;;;;;;0.00;0.00;;;23.10;99.90;;;;;;5052245;28;20205;-63
2023/06/30 11:55:28;;;;;;;0.10;0.10;;;23.10;99.90;;;;;;5049007;28;20210;-63
2023/06/30 11:57:54;;;;;;;0.57;0.15;;;23.10;99.90;;;;;;5032542;28;20265;-64
2023/06/30 12:00:23;;;;;;;0.20;0.20;;;23.60;99.90;;;;;;5031732;28;20692;-63
2023/06/30 12:02:50;;;;;;;0.50;0.50;;;23.40;99.90;;;;;;5031913;28;20646;-63
2023/06/30 12:05:18;;;;;;;0.15;0.15;;;23.30;99.90;;;;;;5032071;28;20277;-64
2023/06/30 12:07:46;;;;;;;0.38;0.22;;;23.60;99.90;;;;;;5014098;28;20202;-63
2023/06/30 12:10:12;;;;;;;2.20;0.68;;;23.10;99.90;;;;;;5031910;28;20234;-64
2023/06/30 12:12:39;;;;;;;0.40;0.40;;;23.10;99.90;;;;;;5031869;28;20372;-64
2023/06/30 12:15:11;;;;;;;0.40;0.40;;;23.30;99.90;;;;;;5031535;28;20233;-64
2023/06/30 12:17:43;;;;;;;0.25;0.25;;;23.70;99.90;;;;;;5031692;28;20210;-64
2023/06/30 12:20:13;;;;;;;0.25;0.25;;;23.50;99.90;;;;;;5031910;28;20285;-64
2023/06/30 12:22:44;;;;;;;0.55;0.52;;;23.30;99.90;;;;;;5031576;28;20198;-64
2023/06/30 12:25:11;;;;;;;0.30;0.30;;;23.40;99.90;;;;;;5032017;28;20201;-64
2023/06/30 12:27:43;;;;;;;1.23;0.73;;;24.10;99.90;;;;;;5030157;28;20294;-64
2023/06/30 12:30:19;;;;;;;1.13;0.70;;;23.70;99.90;;;;;;5013722;28;20218;-64
2023/06/30 12:32:46;;;;;;;0.17;0.17;;;23.80;99.90;;;;;;5031677;28;20251;-64
2023/06/30 12:35:12;;;;;;;0.30;0.30;;;24.00;99.90;;;;;;5031446;28;20223;-64
2023/06/30 12:37:39;;;;;;;0.20;0.20;;;23.70;99.90;;;;;;5042309;28;20194;-64
2023/06/30 12:40:06;;;;;;;0.20;0.20;;;23.70;99.90;;;;;;5051452;28;20197;-64
2023/06/30 12:42:32;;;;;;;2.05;0.40;;;24.00;99.90;;;;;;5050904;28;20535;-64
2023/06/30 12:44:58;;;;;;;0.20;0.20;;;24.50;99.90;;;;;;5051365;28;20201;-64
2023/06/30 12:47:24;;;;;;;0.28;0.28;;;24.60;99.90;;;;;;5050970;28;20283;-64